createdAt,value
2022-09-26T00:00:36.763Z,24.30
2022-09-26T00:03:03.232Z,27.70
2022-09-26T00:05:32.819Z,30.30
2022-09-26T00:07:59.359Z,23.80
2022-09-26T00:10:25.867Z,23.20
2022-09-26T00:12:52.335Z,23.60
2022-09-26T00:15:18.881Z,23.80
2022-09-26T00:17:45.321Z,21.90
2022-09-26T00:20:12.063Z,21.50
2022-09-26T00:22:38.509Z,19.70
2022-09-26T00:25:05.438Z,20.50
2022-09-26T00:27:32.021Z,19.70
2022-09-26T00:29:58.551Z,20.00
2022-09-26T00:32:25.536Z,19.50
2022-09-26T00:34:52.083Z,20.20
2022-09-26T00:37:18.463Z,20.20
2022-09-26T00:39:44.935Z,20.20
2022-09-26T00:42:14.850Z,19.90
2022-09-26T00:44:59.733Z,21.60
2022-09-26T00:47:36.560Z,23.00
2022-09-26T00:50:06.611Z,24.40
2022-09-26T00:52:38.707Z,23.70
2022-09-26T00:55:07.284Z,24.10
2022-09-26T00:57:36.904Z,23.30
2022-09-26T01:00:06.561Z,24.20
2022-09-26T01:02:33.207Z,25.20
2022-09-26T01:05:00.118Z,24.80
2022-09-26T01:07:27.479Z,24.20
2022-09-26T01:09:54.282Z,25.70
2022-09-26T01:12:21.080Z,23.30
2022-09-26T01:14:48.540Z,22.70
2022-09-26T01:17:15.501Z,22.20
2022-09-26T01:20:00.484Z,23.70
2022-09-26T01:22:39.192Z,22.90
2022-09-26T01:25:05.551Z,21.10
2022-09-26T01:27:44.173Z,22.30
2022-09-26T01:30:10.604Z,21.50
2022-09-26T01:32:49.246Z,22.30
2022-09-26T01:35:27.748Z,21.30
2022-09-26T01:38:00.233Z,22.80
2022-09-26T01:40:53.738Z,22.70
2022-09-26T01:43:24.237Z,21.30
2022-09-26T01:45:53.527Z,22.50
2022-09-26T01:48:26.443Z,22.60
2022-09-26T01:51:00.689Z,23.00
2022-09-26T01:53:38.783Z,23.10
2022-09-26T01:56:10.751Z,22.20
2022-09-26T01:58:40.057Z,22.30
2022-09-26T02:01:09.537Z,21.60
2022-09-26T02:03:37.632Z,21.00
2022-09-26T02:06:05.726Z,21.60
2022-09-26T02:08:47.530Z,21.50
2022-09-26T02:11:16.142Z,21.40
2022-09-26T02:13:55.074Z,21.40
2022-09-26T02:16:26.193Z,21.40
2022-09-26T02:21:23.065Z,21.20
2022-09-26T02:23:50.226Z,22.70
2022-09-26T02:26:16.761Z,23.00
2022-09-26T02:28:43.606Z,22.10
2022-09-26T02:31:11.598Z,22.50
2022-09-26T02:33:38.008Z,21.90
2022-09-26T02:36:05.545Z,20.70
2022-09-26T02:38:31.994Z,21.30
2022-09-26T02:41:17.249Z,21.70
2022-09-26T02:43:49.909Z,20.90
2022-09-26T02:46:35.287Z,21.00
2022-09-26T02:49:07.535Z,19.50
2022-09-26T02:51:50.828Z,20.70
2022-09-26T02:54:23.578Z,20.30
2022-09-26T02:57:08.522Z,19.80
2022-09-26T02:59:47.079Z,19.90
2022-09-26T03:02:15.414Z,20.10
2022-09-26T03:04:48.889Z,20.80
2022-09-26T03:07:20.530Z,20.30
2022-09-26T03:09:48.809Z,18.80
2022-09-26T03:12:15.448Z,20.60
2022-09-26T03:14:43.073Z,20.40
2022-09-26T03:17:10.226Z,19.80
2022-09-26T03:19:53.207Z,19.00
2022-09-26T03:22:19.652Z,19.60
2022-09-26T03:24:46.177Z,18.10
2022-09-26T03:27:13.232Z,17.30
2022-09-26T03:29:39.624Z,19.00
2022-09-26T03:32:06.400Z,19.60
2022-09-26T03:34:32.984Z,19.90
2022-09-26T03:36:59.424Z,20.40
2022-09-26T03:39:25.794Z,19.60
2022-09-26T03:41:52.313Z,19.10
2022-09-26T03:44:18.861Z,19.10
2022-09-26T03:46:45.242Z,19.80
2022-09-26T03:49:11.722Z,20.60
2022-09-26T03:51:38.398Z,20.00
2022-09-26T03:54:04.811Z,19.50
2022-09-26T03:56:31.252Z,20.20
2022-09-26T03:58:57.892Z,20.80
2022-09-26T04:01:24.353Z,21.90
2022-09-26T04:03:51.558Z,22.10
2022-09-26T04:06:19.158Z,20.90
2022-09-26T04:08:46.539Z,20.30
2022-09-26T04:11:13.871Z,19.60
2022-09-26T04:13:51.278Z,20.30
2022-09-26T04:16:19.112Z,20.00
2022-09-26T04:18:45.694Z,18.90
2022-09-26T04:21:13.082Z,19.50
2022-09-26T04:23:40.280Z,21.30
2022-09-26T04:26:08.280Z,21.60
2022-09-26T04:28:35.142Z,20.30
2022-09-26T04:31:02.907Z,19.90
2022-09-26T04:33:29.691Z,20.20
2022-09-26T04:35:56.061Z,19.70
2022-09-26T04:38:22.738Z,18.40
2022-09-26T04:40:49.211Z,20.70
2022-09-26T04:43:15.822Z,19.80
2022-09-26T04:45:43.009Z,19.90
2022-09-26T04:48:10.001Z,19.70
2022-09-26T04:50:36.522Z,19.90
2022-09-26T04:53:03.322Z,19.70
2022-09-26T04:55:29.759Z,19.00
2022-09-26T04:57:56.201Z,18.50
2022-09-26T05:00:22.624Z,20.30
2022-09-26T05:02:49.083Z,21.40
2022-09-26T05:05:15.678Z,19.10
2022-09-26T05:07:42.576Z,19.80
2022-09-26T05:10:09.426Z,20.40
2022-09-26T05:12:35.864Z,20.10
2022-09-26T05:15:02.244Z,19.20
2022-09-26T05:17:28.601Z,23.00
2022-09-26T05:19:54.973Z,20.80
2022-09-26T05:22:21.528Z,21.40
2022-09-26T05:24:47.958Z,20.90
2022-09-26T05:27:14.345Z,21.40
2022-09-26T05:29:41.035Z,20.70
2022-09-26T05:32:07.464Z,19.60
2022-09-26T05:34:33.916Z,19.50
2022-09-26T05:37:00.309Z,18.10
2022-09-26T05:39:26.762Z,17.90
2022-09-26T05:41:53.738Z,18.00
2022-09-26T05:44:20.498Z,19.80
2022-09-26T05:46:47.106Z,20.90
2022-09-26T05:49:13.583Z,20.50
2022-09-26T05:51:40.046Z,20.70
2022-09-26T05:54:06.400Z,18.60
2022-09-26T05:56:33.265Z,18.80
2022-09-26T05:58:59.671Z,17.70
2022-09-26T06:01:26.241Z,17.80
2022-09-26T06:03:52.722Z,17.30
2022-09-26T06:06:19.843Z,17.30
2022-09-26T06:08:46.383Z,17.30
2022-09-26T06:11:13.936Z,17.20
2022-09-26T06:13:41.305Z,17.70
2022-09-26T06:16:10.656Z,16.80
2022-09-26T06:18:37.803Z,15.50
2022-09-26T06:21:07.999Z,17.40
2022-09-26T06:23:34.679Z,17.50
2022-09-26T06:26:01.916Z,17.10
2022-09-26T06:28:28.329Z,17.90
2022-09-26T06:30:55.224Z,17.00
2022-09-26T06:33:22.115Z,16.70
2022-09-26T06:35:59.061Z,15.80
2022-09-26T06:38:25.496Z,14.60
2022-09-26T06:40:52.272Z,15.10
2022-09-26T06:43:18.887Z,15.40
2022-09-26T06:45:45.427Z,14.70
2022-09-26T06:48:23.708Z,14.10
2022-09-26T06:50:54.906Z,17.60
2022-09-26T06:53:21.513Z,20.80
2022-09-26T06:55:48.501Z,21.40
2022-09-26T06:58:15.251Z,20.90
2022-09-26T07:00:41.997Z,21.10
2022-09-26T07:03:08.674Z,27.30
2022-09-26T07:05:36.245Z,27.30
2022-09-26T07:08:03.203Z,30.40
2022-09-26T07:10:29.802Z,28.80
2022-09-26T07:13:00.132Z,22.40
2022-09-26T07:15:26.776Z,23.60
2022-09-26T07:17:53.213Z,24.70
2022-09-26T07:20:20.449Z,28.60
2022-09-26T07:22:47.218Z,26.60
2022-09-26T07:25:13.620Z,23.60
2022-09-26T07:27:40.465Z,22.00
2022-09-26T07:30:08.132Z,19.10
2022-09-26T07:32:34.950Z,18.20
2022-09-26T07:35:01.356Z,16.90
2022-09-26T07:37:28.016Z,15.80
2022-09-26T07:39:58.186Z,16.00
2022-09-26T07:42:27.234Z,15.30
2022-09-26T07:45:20.826Z,15.40
2022-09-26T07:47:40.177Z,14.00
2022-09-26T07:50:07.023Z,14.10
2022-09-26T07:52:33.540Z,13.40
2022-09-26T07:54:59.919Z,14.00
2022-09-26T07:57:26.400Z,13.90
2022-09-26T07:59:52.789Z,13.80
2022-09-26T08:02:20.979Z,13.20
2022-09-26T08:04:48.316Z,14.30
2022-09-26T08:07:14.755Z,13.70
2022-09-26T08:09:41.452Z,13.80
2022-09-26T08:12:07.937Z,16.60
2022-09-26T08:14:34.379Z,17.30
2022-09-26T08:17:00.816Z,15.90
2022-09-26T08:19:27.256Z,15.50
2022-09-26T08:21:53.712Z,17.20
2022-09-26T08:24:20.082Z,18.40
2022-09-26T08:26:46.632Z,20.50
2022-09-26T08:29:13.043Z,19.90
2022-09-26T08:31:40.071Z,17.70
2022-09-26T08:34:07.627Z,18.00
2022-09-26T08:36:34.131Z,16.60
2022-09-26T08:39:00.601Z,15.30
2022-09-26T08:41:46.295Z,14.90
2022-09-26T08:44:15.730Z,15.70
2022-09-26T08:46:42.174Z,16.90
2022-09-26T08:49:11.445Z,17.90
2022-09-26T08:51:40.349Z,23.90
2022-09-26T08:54:12.226Z,21.00
2022-09-26T08:56:46.024Z,18.30
2022-09-26T08:59:16.542Z,16.80
2022-09-26T09:01:44.810Z,15.90
2022-09-26T09:04:21.106Z,15.00
2022-09-26T09:06:48.205Z,14.70
2022-09-26T09:09:16.276Z,14.10
2022-09-26T09:12:01.614Z,16.20
2022-09-26T09:14:28.059Z,17.50
2022-09-26T09:17:12.819Z,21.20
2022-09-26T09:19:45.136Z,22.30
2022-09-26T09:22:32.015Z,23.30
2022-09-26T09:24:59.730Z,24.50
2022-09-26T09:27:53.918Z,23.60
2022-09-26T09:30:22.620Z,26.90
2022-09-26T09:32:55.151Z,24.00
2022-09-26T09:35:28.087Z,25.80
2022-09-26T09:37:55.030Z,31.00
2022-09-26T09:40:24.989Z,26.50
2022-09-26T09:42:55.332Z,23.90
2022-09-26T09:45:25.572Z,20.40
2022-09-26T09:47:52.217Z,21.60
2022-09-26T09:50:45.323Z,20.80
2022-09-26T09:53:20.795Z,19.60
2022-09-26T09:55:53.512Z,19.20
2022-09-26T09:58:25.887Z,20.40
2022-09-26T10:01:08.432Z,21.50
2022-09-26T10:03:41.086Z,20.20
2022-09-26T10:06:10.535Z,21.20
2022-09-26T10:08:54.016Z,21.50
2022-09-26T10:11:38.363Z,25.30
2022-09-26T10:14:06.764Z,24.90
2022-09-26T10:16:33.512Z,20.90
2022-09-26T10:19:03.396Z,19.90
2022-09-26T10:21:31.935Z,20.10
2022-09-26T10:23:58.658Z,19.80
2022-09-26T10:26:30.593Z,21.20
2022-09-26T10:28:59.035Z,22.10
2022-09-26T10:31:26.932Z,23.40
2022-09-26T10:33:55.110Z,21.80
2022-09-26T10:36:28.887Z,21.70
2022-09-26T10:38:59.777Z,20.10
2022-09-26T10:41:26.237Z,20.20
2022-09-26T10:43:53.960Z,20.90
2022-09-26T10:46:22.344Z,19.30
2022-09-26T10:48:50.759Z,19.70
2022-09-26T10:51:30.055Z,21.10
2022-09-26T10:54:00.387Z,18.30
2022-09-26T10:56:28.929Z,15.20
2022-09-26T10:58:57.465Z,15.00
2022-09-26T11:01:26.037Z,14.40
2022-09-26T11:03:53.537Z,16.60
2022-09-26T11:06:33.657Z,14.50
2022-09-26T11:09:01.555Z,12.70
2022-09-26T11:11:29.776Z,15.60
2022-09-26T11:13:56.167Z,14.70
2022-09-26T11:16:23.172Z,15.50
2022-09-26T11:19:28.414Z,12.20
2022-09-26T11:21:58.596Z,9.20
2022-09-26T11:24:28.934Z,8.80
2022-09-26T11:27:10.628Z,10.70
2022-09-26T11:29:41.467Z,10.50
2022-09-26T11:32:13.538Z,9.60
2022-09-26T11:34:40.494Z,9.90
2022-09-26T11:37:13.185Z,9.50
2022-09-26T11:39:54.672Z,9.40
2022-09-26T11:42:21.313Z,9.20
2022-09-26T11:44:54.204Z,8.70
2022-09-26T11:47:20.754Z,9.90
2022-09-26T11:49:55.428Z,8.70
2022-09-26T11:52:37.009Z,8.00
2022-09-26T11:55:33.139Z,6.80
2022-09-26T11:58:26.066Z,6.80
2022-09-26T12:01:01.824Z,12.20
2022-09-26T12:03:39.099Z,10.40
2022-09-26T12:06:20.793Z,7.90
2022-09-26T12:09:06.162Z,6.70
2022-09-26T12:11:41.682Z,5.80
2022-09-26T12:14:14.207Z,4.70
2022-09-26T12:16:57.352Z,4.20
2022-09-26T12:19:32.699Z,4.30
2022-09-26T12:22:07.758Z,4.90
2022-09-26T12:24:46.745Z,7.10
2022-09-26T12:27:19.060Z,4.80
2022-09-26T12:29:52.259Z,3.70
2022-09-26T12:32:38.150Z,3.80
2022-09-26T12:35:17.794Z,3.10
2022-09-26T12:37:46.890Z,3.20
2022-09-26T12:40:31.635Z,3.50
2022-09-26T12:43:24.327Z,2.70
2022-09-26T12:45:53.632Z,2.30
2022-09-26T12:48:26.036Z,2.80
2022-09-26T12:50:58.939Z,3.00
2022-09-26T12:53:32.501Z,3.20
2022-09-26T12:56:31.515Z,4.00
2022-09-26T12:59:16.579Z,4.20
2022-09-26T13:01:50.124Z,4.00
2022-09-26T13:04:35.371Z,4.30
2022-09-26T13:07:20.650Z,5.20
2022-09-26T13:10:06.159Z,4.90
2022-09-26T13:12:39.139Z,5.20
2022-09-26T13:15:16.120Z,5.00
2022-09-26T13:17:44.506Z,5.40
2022-09-26T13:20:17.898Z,5.50
2022-09-26T13:22:47.419Z,5.80
2022-09-26T13:25:19.491Z,4.40
2022-09-26T13:27:51.477Z,5.00
2022-09-26T13:30:24.305Z,5.70
2022-09-26T13:32:54.026Z,4.90
2022-09-26T13:35:20.398Z,4.00
2022-09-26T13:37:56.666Z,4.20
2022-09-26T13:40:36.593Z,3.70
2022-09-26T13:43:12.022Z,4.00
2022-09-26T13:45:57.115Z,5.70
2022-09-26T13:48:42.886Z,4.30
2022-09-26T13:51:15.231Z,4.00
2022-09-26T13:53:46.279Z,3.70
2022-09-26T13:56:27.958Z,4.10
2022-09-26T13:59:14.902Z,4.40
2022-09-26T14:02:00.091Z,4.60
2022-09-26T14:04:34.229Z,4.30
2022-09-26T14:07:06.827Z,4.70
2022-09-26T14:09:52.752Z,4.50
2022-09-26T14:12:21.195Z,8.40
2022-09-26T14:14:52.049Z,6.30
2022-09-26T14:17:37.374Z,4.90
2022-09-26T14:20:04.940Z,5.50
2022-09-26T14:22:32.406Z,6.00
2022-09-26T14:24:59.049Z,3.80
2022-09-26T14:27:41.782Z,3.60
2022-09-26T14:30:28.698Z,3.50
2022-09-26T14:32:59.946Z,3.40
2022-09-26T14:35:35.921Z,3.40
2022-09-26T14:38:07.747Z,3.60
2022-09-26T14:40:36.434Z,3.30
2022-09-26T14:43:16.417Z,4.50
2022-09-26T14:45:53.556Z,3.70
2022-09-26T14:48:23.187Z,2.40
2022-09-26T14:50:51.445Z,2.70
2022-09-26T14:53:28.977Z,2.90
2022-09-26T14:56:03.530Z,3.80
2022-09-26T14:58:31.972Z,5.40
2022-09-26T15:01:00.903Z,4.80
2022-09-26T15:03:27.609Z,5.00
2022-09-26T15:05:54.309Z,5.50
2022-09-26T15:08:28.750Z,5.50
2022-09-26T15:10:57.131Z,6.00
2022-09-26T15:13:27.187Z,5.70
2022-09-26T15:16:00.048Z,4.50
2022-09-26T15:18:26.503Z,4.70
2022-09-26T15:21:19.029Z,6.50
2022-09-26T15:23:47.467Z,6.50
2022-09-26T15:26:15.529Z,6.40
2022-09-26T15:28:42.005Z,18.10
2022-09-26T15:31:17.744Z,18.10
2022-09-26T15:33:44.324Z,22.80
2022-09-26T15:36:11.203Z,14.20
2022-09-26T15:38:37.703Z,14.60
2022-09-26T15:41:04.330Z,15.80
2022-09-26T15:43:34.530Z,13.50
2022-09-26T15:46:04.685Z,17.30
2022-09-26T15:48:42.379Z,12.50
2022-09-26T15:51:12.752Z,11.80
2022-09-26T15:53:45.425Z,10.20
2022-09-26T15:56:13.909Z,9.90
2022-09-26T15:58:40.357Z,13.00
2022-09-26T16:01:13.766Z,13.80
2022-09-26T16:03:43.774Z,12.60
2022-09-26T16:06:21.145Z,12.00
2022-09-26T16:08:50.986Z,13.20
2022-09-26T16:11:17.429Z,14.90
2022-09-26T16:13:48.788Z,17.10
2022-09-26T16:16:20.619Z,18.70
2022-09-26T16:18:52.725Z,17.20
2022-09-26T16:21:24.383Z,19.60
2022-09-26T16:23:52.372Z,19.00
2022-09-26T16:26:25.155Z,18.80
2022-09-26T16:28:51.788Z,18.40
2022-09-26T16:31:28.583Z,19.20
2022-09-26T16:33:56.341Z,18.60
2022-09-26T16:36:24.254Z,20.00
2022-09-26T16:38:51.784Z,20.00
2022-09-26T16:41:59.973Z,20.10
2022-09-26T16:44:27.645Z,20.50
2022-09-26T16:46:58.199Z,40.20
2022-09-26T16:49:44.810Z,29.70
2022-09-26T16:52:27.434Z,52.50
2022-09-26T16:54:54.866Z,41.00
2022-09-26T16:57:23.333Z,27.70
2022-09-26T16:59:50.181Z,39.20
2022-09-26T17:02:17.056Z,31.80
2022-09-26T17:04:44.028Z,26.60
2022-09-26T17:07:12.729Z,24.70
2022-09-26T17:09:39.209Z,23.10
2022-09-26T17:12:07.742Z,28.30
2022-09-26T17:14:40.073Z,48.60
2022-09-26T17:17:08.498Z,46.80
2022-09-26T17:19:38.168Z,45.60
2022-09-26T17:22:06.901Z,44.20
2022-09-26T17:24:33.755Z,48.50
2022-09-26T17:27:04.824Z,61.70
2022-09-26T17:29:37.191Z,64.90
2022-09-26T17:32:08.834Z,50.80
2022-09-26T17:34:37.233Z,65.10
2022-09-26T17:37:04.085Z,55.30
2022-09-26T17:39:30.726Z,58.00
2022-09-26T17:41:57.269Z,53.60
2022-09-26T17:44:23.924Z,45.10
2022-09-26T17:46:54.171Z,92.90
2022-09-26T17:49:25.697Z,56.20
2022-09-26T17:51:52.643Z,47.70
2022-09-26T17:54:19.492Z,52.20
2022-09-26T17:56:46.827Z,47.30
2022-09-26T17:59:19.749Z,46.60
2022-09-26T18:01:47.591Z,59.40
2022-09-26T18:04:14.811Z,57.80
2022-09-26T18:06:41.624Z,57.50
2022-09-26T18:09:09.569Z,57.70
2022-09-26T18:11:36.345Z,54.50
2022-09-26T18:14:04.016Z,56.20
2022-09-26T18:16:30.656Z,64.80
2022-09-26T18:18:57.194Z,104.40
2022-09-26T18:21:23.938Z,77.30
2022-09-26T18:23:57.237Z,75.40
2022-09-26T18:26:26.913Z,66.60
2022-09-26T18:28:53.803Z,71.30
2022-09-26T18:31:24.374Z,71.30
2022-09-26T18:33:51.077Z,76.80
2022-09-26T18:36:18.233Z,64.40
2022-09-26T18:38:45.020Z,72.90
2022-09-26T18:41:11.930Z,70.70
2022-09-26T18:43:41.338Z,66.50
2022-09-26T18:46:10.514Z,74.60
2022-09-26T18:48:37.424Z,55.20
2022-09-26T18:51:04.337Z,64.80
2022-09-26T18:53:31.114Z,58.20
2022-09-26T18:55:57.627Z,51.40
2022-09-26T18:58:24.173Z,54.10
2022-09-26T19:00:59.995Z,51.60
2022-09-26T19:03:49.613Z,55.50
2022-09-26T19:06:17.498Z,52.80
2022-09-26T19:08:45.461Z,59.20
2022-09-26T19:11:14.700Z,81.20
2022-09-26T19:13:45.913Z,73.70
2022-09-26T19:18:40.684Z,59.00
2022-09-26T19:21:23.279Z,54.50
2022-09-26T19:23:50.542Z,53.40
2022-09-26T19:26:37.535Z,53.70
2022-09-26T19:29:09.947Z,65.50
2022-09-26T19:31:38.805Z,90.20
2022-09-26T19:34:05.448Z,63.20
2022-09-26T19:36:31.988Z,70.40
2022-09-26T19:38:58.637Z,68.90
2022-09-26T19:41:25.492Z,74.10
2022-09-26T19:43:52.023Z,105.40
2022-09-26T19:46:24.532Z,88.60
2022-09-26T19:48:51.252Z,79.40
2022-09-26T19:51:17.792Z,75.70
2022-09-26T19:53:44.540Z,72.50
2022-09-26T19:56:11.239Z,66.10
2022-09-26T19:58:37.835Z,63.10
2022-09-26T20:01:13.016Z,63.10
2022-09-26T20:03:39.618Z,60.30
2022-09-26T20:06:17.222Z,59.30
2022-09-26T20:08:43.661Z,64.00
2022-09-26T20:11:11.543Z,60.10
2022-09-26T20:13:37.943Z,56.80
2022-09-26T20:16:04.512Z,54.20
2022-09-26T20:18:31.168Z,60.30
2022-09-26T20:20:58.616Z,55.40
2022-09-26T20:23:26.084Z,64.30
2022-09-26T20:25:53.562Z,60.80
2022-09-26T20:28:20.305Z,61.50
2022-09-26T20:30:46.831Z,62.50
2022-09-26T20:33:13.890Z,57.20
2022-09-26T20:35:42.235Z,54.60
2022-09-26T20:38:27.454Z,56.10
2022-09-26T20:40:57.504Z,60.80
2022-09-26T20:43:27.674Z,76.00
2022-09-26T20:45:54.212Z,76.30
2022-09-26T20:48:25.386Z,74.10
2022-09-26T20:50:51.837Z,67.90
2022-09-26T20:53:19.200Z,68.30
2022-09-26T20:55:46.563Z,58.70
2022-09-26T20:58:13.446Z,58.40
2022-09-26T21:00:40.770Z,57.90
2022-09-26T21:03:07.413Z,55.00
2022-09-26T21:05:34.158Z,53.00
2022-09-26T21:08:00.898Z,48.80
2022-09-26T21:10:27.276Z,46.60
2022-09-26T21:12:53.742Z,45.10
2022-09-26T21:15:21.352Z,44.60
2022-09-26T21:17:48.198Z,43.40
2022-09-26T21:20:20.711Z,48.10
2022-09-26T21:22:47.455Z,48.00
2022-09-26T21:25:15.307Z,44.60
2022-09-26T21:27:41.868Z,41.00
2022-09-26T21:30:12.743Z,36.30
2022-09-26T21:32:42.838Z,35.80
2022-09-26T21:35:09.533Z,35.30
2022-09-26T21:37:35.998Z,32.30
2022-09-26T21:40:02.876Z,31.90
2022-09-26T21:42:29.589Z,30.80
2022-09-26T21:44:58.941Z,31.40
2022-09-26T21:47:25.612Z,30.40
2022-09-26T21:49:52.276Z,28.40
2022-09-26T21:52:27.075Z,29.50
2022-09-26T21:54:53.662Z,29.20
2022-09-26T21:57:23.591Z,32.20
2022-09-26T21:59:51.246Z,37.50
2022-09-26T22:02:17.777Z,35.40
2022-09-26T22:04:44.449Z,33.20
2022-09-26T22:07:11.079Z,33.60
2022-09-26T22:09:37.503Z,34.70
2022-09-26T22:12:03.895Z,35.40
2022-09-26T22:14:30.505Z,35.30
2022-09-26T22:16:56.961Z,32.40
2022-09-26T22:19:23.584Z,32.10
2022-09-26T22:21:50.423Z,33.50
2022-09-26T22:24:16.964Z,31.40
2022-09-26T22:26:43.341Z,33.70
2022-09-26T22:29:09.852Z,31.80
2022-09-26T22:31:36.606Z,32.60
2022-09-26T22:34:03.040Z,31.10
2022-09-26T22:36:29.538Z,32.50
2022-09-26T22:38:56.017Z,28.10
2022-09-26T22:41:22.467Z,23.10
2022-09-26T22:43:50.975Z,23.00
2022-09-26T22:46:17.536Z,23.20
2022-09-26T22:48:45.289Z,26.00
2022-09-26T22:51:12.293Z,25.80
2022-09-26T22:53:39.645Z,31.60
2022-09-26T22:56:07.809Z,29.50
2022-09-26T22:58:36.799Z,30.20
2022-09-26T23:01:04.817Z,25.10
2022-09-26T23:03:31.457Z,25.90
2022-09-26T23:05:57.906Z,25.50
2022-09-26T23:08:24.438Z,28.00
2022-09-26T23:10:51.398Z,29.40
2022-09-26T23:13:18.579Z,28.90
2022-09-26T23:15:45.298Z,27.30
2022-09-26T23:18:12.182Z,26.30
2022-09-26T23:20:42.306Z,26.80
2022-09-26T23:23:09.745Z,27.50
2022-09-26T23:25:36.795Z,27.50
2022-09-26T23:28:03.850Z,30.30
2022-09-26T23:30:30.352Z,29.90
2022-09-26T23:32:56.863Z,27.80
2022-09-26T23:35:23.357Z,31.30
2022-09-26T23:37:49.928Z,30.00
2022-09-26T23:40:16.618Z,28.60
2022-09-26T23:42:43.137Z,29.60
2022-09-26T23:45:10.185Z,28.40
2022-09-26T23:47:36.571Z,27.50
2022-09-26T23:50:03.141Z,26.90
2022-09-26T23:52:30.117Z,25.20
2022-09-26T23:54:56.513Z,26.90
2022-09-26T23:57:23.448Z,27.10
2022-09-26T23:59:50.030Z,26.90
